Albury
Weather
Information

and Archive.
Albury Local Internet Skycam This service provided and funded by Albury Local Internet

Help keep our weatherstation running:

Lavington Weatherstation live data - Conditions of Use

Last updated on 01-Sep-2014 at 23:35:09
Temperature
  Currently  8.5 Degrees C
  Apparent Temperature ("Wind Chill") is 5.8 degrees C
  Today has ranged from  0.0 at 13:20 to 19.7 at 14:25
  Yesterday ranged from  0.0 at 20:55 to 19.9 at 14:38
Wind
  Now:   11.9kmh, gusting to  11.9kmh from 277 degrees ( W )
  Hour:   9.8kmh, gusting to  17.6kmh
Rainfall
   0.0mm Midnight to Midnight (ie, yesterday)
   3.0mm Since Midnight (ie, so far today)
   0.0mm 9am yesterday to 9am today
   3.0mm Total this month
Misc items
  Relative humidity is 100%
  Dewpoint is 8.5 deg C
  Estimated Cloudbase is 0 feet
  Barometric Pressure is 1012.0 mbar
  Solar Insolation: 10 W/m^2

Last 24 hours Temperature Graph (click graph for history)
temperature

Last 24 hours Dynamic Wind display (click image for 4-hour image):
Wind Rose

Current Yarrawonga Weather Radar and Infrared Satellite Images from the BOM.

Hourly summaries in the tables below are cumulative and peak values
for the preceding hour, and instantaneous values at the hour.
So far today, 01-Sep-2014
Time   Barom.  Wind + Gust    Direction   RH   Rain    Temp.  Minimum    Maximum
01:00  1016.0   5.0  14.8kmh   35 ( NE)   90%  0.0mm    8.7   8.6@00:11 10.3@00:28
02:00  1016.0   0.2   8.6kmh   54 ( NE)   98%  0.0mm    8.1   8.1@01:54  9.4@01:17
03:00  1015.0   2.0   8.6kmh   48 ( NE)  100%  0.0mm    7.4   7.4@02:40  9.2@02:07
04:00  1015.0   1.6   7.2kmh  107 (ESE)  100%  0.0mm    7.4   7.0@03:30  8.1@03:36
05:00  1015.0   3.8   7.2kmh  235 ( SW)  100%  0.0mm    7.4   7.0@04:20  7.9@04:52
06:00  1015.0   0.9   6.5kmh  183 ( S )  100%  0.0mm    7.3   7.0@05:30  8.0@05:40
07:00  1015.0   1.7   7.2kmh   76 (ENE)  100%  0.0mm    7.1   6.8@06:55  7.8@06:38
08:00  1015.0   2.4  11.2kmh   23 (NNE)   84%  0.0mm    9.9   7.0@07:01 11.3@07:46
09:00  1014.0   7.8  19.4kmh   27 (NNE)   72%  0.0mm   14.4   9.2@08:11 14.9@08:58
10:00  1014.0  11.4  22.3kmh    2 ( N )   51%  0.0mm   17.2  14.4@09:00 17.1@09:54
11:00  1013.0  14.7  25.6kmh   14 (NNE)   53%  0.0mm   18.2  17.1@10:24 18.4@10:59
12:00  1012.0  15.3  33.1kmh  329 (NNW)   49%  0.0mm   17.8  17.9@11:56 19.4@11:06
13:00  1011.0  13.9  24.8kmh    2 ( N )   51%  0.0mm   18.5  17.0@12:23 18.4@12:43
14:00  1010.0  12.6  25.6kmh  321 ( NW)   52%  0.0mm   19.4   0.0@13:20 19.6@13:59
15:00  1009.0  14.1  31.3kmh  311 ( NW)   44%  0.0mm   18.2  18.3@14:57 19.7@14:25
16:00  1009.0   9.8  18.0kmh  249 (WSW)   48%  0.0mm   16.4  16.4@15:59 18.2@15:00
17:00  1010.0  15.3  32.0kmh  240 (WSW)   60%  0.0mm   13.5  13.6@16:57 16.4@16:00
18:00  1010.0  12.0  31.3kmh  217 ( SW)   88%  0.0mm   11.5  11.5@17:50 13.5@17:00
19:00  1011.0  11.6  23.8kmh  226 ( SW)  100%  0.0mm   10.2  10.2@18:56 11.6@18:03
20:00  1012.0  11.1  21.6kmh  230 ( SW)  100%  0.2mm    9.7   9.7@19:53 10.2@19:00
21:00  1012.0   7.3  16.9kmh  209 (SSW)  100%  1.4mm    9.4   9.3@20:49  9.7@20:00
22:00  1012.0   8.5  16.9kmh  230 ( SW)  100%  1.4mm    8.7   8.7@21:49  9.4@21:00
23:00  1012.0   9.0  20.2kmh  226 ( SW)  100%  0.0mm    8.7   8.7@22:00  8.8@22:01
23:35  1012.0   9.8  17.6kmh  241 (WSW)  100%  0.0mm    8.5   8.5@23:35  8.7@23:00


Summary for yesterday, 31-Aug-2014
Time   Barom.  Wind + Gust    Direction   RH   Rain    Temp.  Minimum    Maximum
01:00  1022.0   5.7  11.2kmh  100 ( E )  100%  0.0mm    8.6   8.5@00:46  9.2@00:00
02:00  1022.0   5.3  10.1kmh  103 (ESE)  100%  0.0mm    7.8   7.8@01:55  8.6@01:00
03:00  1021.0   5.5  11.9kmh  100 ( E )  100%  0.0mm    7.8   6.9@02:45  8.0@02:59
04:00  1021.0   8.2  12.6kmh  103 (ESE)  100%  0.0mm    7.2   7.2@03:47  7.8@03:00
05:00  1021.0   5.7  11.2kmh   95 ( E )  100%  0.0mm    6.4   6.4@04:58  7.2@04:00
06:00  1021.0   4.4  10.8kmh  113 (ESE)  100%  0.0mm    6.5   6.2@05:26  6.6@05:51
07:00  1022.0   4.3  11.2kmh  104 (ESE)  100%  0.0mm    6.6   5.5@06:30  6.7@06:05
08:00  1022.0   4.2  11.2kmh  105 (ESE)  100%  0.0mm    8.2   6.3@07:05  8.2@07:56
09:00  1023.0   4.0   9.4kmh  130 ( SE)  100%  0.0mm    8.7   7.7@08:10  9.2@08:44
10:00  1022.0   4.2   9.4kmh  151 (SSE)   88%  0.0mm   11.3   8.7@09:00 11.6@09:53
11:00  1021.0   5.9  11.9kmh  322 ( NW)   67%  0.0mm   16.0  11.3@10:00 16.7@10:52
12:00  1020.0   8.6  16.9kmh  340 (NNW)   60%  0.0mm   18.1  15.5@11:08 18.4@11:56
13:00  1020.0   8.1  15.5kmh  329 (NNW)   54%  0.0mm   18.1  16.7@12:59 18.7@12:12
14:00  1019.0   7.7  14.0kmh  308 ( NW)   51%  0.0mm   17.7  17.1@13:56 19.4@13:33
15:00  1018.0   8.2  16.9kmh  308 ( NW)   49%  0.0mm   18.6  17.6@14:02 19.9@14:38
16:00  1017.0   8.3  15.5kmh  310 ( NW)   45%  0.0mm   18.2  17.9@15:22 19.1@15:09
17:00  1018.0   7.2  15.5kmh  319 ( NW)   49%  0.0mm   16.8  17.0@16:59 18.3@16:09
18:00  1017.0   6.6  10.1kmh  356 ( N )   73%  0.0mm   12.8  12.9@17:58 16.9@17:01
19:00  1018.0   9.2  10.8kmh   37 ( NE)   66%  0.0mm   11.9  11.9@18:58 12.8@18:00
20:00  1018.0  11.0  14.0kmh   25 (NNE)   69%  0.0mm   11.9  11.9@19:00 12.6@19:08
21:00  1018.0  13.1  17.6kmh   35 ( NE)   74%  0.0mm   11.6   0.0@20:55 12.0@20:35
22:00  1017.0  12.6  16.2kmh   40 ( NE)   71%  0.0mm   11.3  11.2@21:59 11.6@21:00
23:00  1017.0  11.0  16.9kmh   32 (NNE)   72%  0.0mm   10.6  10.9@22:13 11.3@22:00
00:00  1016.0   8.2  17.6kmh   58 (ENE)   90%  0.0mm    9.0   8.7@23:52 11.6@23:14